Time;durP1;ratioP1;P1;durP2;ratioP2;P2;SDS_P1;SDS_P2;PMS_P1;PMS_P2;Temp;Humidity;BMP_temperature;BMP_pressure;BME280_temperature;BME280_humidity;BME280_pressure;Samples;Min_cycle;Max_cycle;Signal;HPM_P1;HPM_P2
2021/12/31 00:00:30;;;;;;;2.13;0.95;;;12.40;99.90;;;;;;5013086;28;20045;-75
2021/12/31 00:02:56;;;;;;;11.20;2.53;;;12.40;99.90;;;;;;5028450;28;20048;-75
2021/12/31 00:05:22;;;;;;;8.93;1.85;;;12.30;99.90;;;;;;5044855;28;20072;-75
2021/12/31 00:07:48;;;;;;;18.27;3.55;;;12.30;99.90;;;;;;5028448;28;20072;-75
2021/12/31 00:10:14;;;;;;;10.88;2.80;;;12.30;99.90;;;;;;5028645;28;20033;-75
2021/12/31 00:12:42;;;;;;;22.35;2.65;;;12.30;99.90;;;;;;5027343;28;20676;-75
2021/12/31 00:15:09;;;;;;;18.08;3.17;;;12.30;99.90;;;;;;5028582;28;20045;-75
2021/12/31 00:17:35;;;;;;;8.60;2.30;;;12.30;99.90;;;;;;5028209;28;20037;-75
2021/12/31 00:20:10;;;;;;;7.75;2.13;;;12.20;99.90;;;;;;5011950;28;20033;-75
2021/12/31 00:25:02;;;;;;;1.90;0.82;;;12.20;99.90;;;;;;5029138;28;20100;-75
2021/12/31 00:27:28;;;;;;;4.82;1.30;;;12.20;99.90;;;;;;5025704;28;20046;-75
2021/12/31 00:29:54;;;;;;;14.10;2.60;;;12.20;99.90;;;;;;5027687;28;20060;-75
2021/12/31 00:32:20;;;;;;;5.45;1.63;;;12.10;99.90;;;;;;5012073;28;20440;-75
2021/12/31 00:34:46;;;;;;;5.45;1.42;;;12.10;99.90;;;;;;5027864;28;20501;-75
2021/12/31 00:37:11;;;;;;;5.53;1.38;;;12.10;99.90;;;;;;5028658;28;20053;-75
2021/12/31 00:39:37;;;;;;;3.00;1.40;;;12.10;99.90;;;;;;5015749;28;20466;-75
2021/12/31 00:42:04;;;;;;;14.80;3.17;;;12.10;99.90;;;;;;5031993;28;20049;-75
2021/12/31 00:44:30;;;;;;;15.40;2.42;;;12.10;99.90;;;;;;5015787;28;20080;-75
2021/12/31 00:46:55;;;;;;;13.65;2.47;;;12.10;99.90;;;;;;5029071;28;20060;-75
2021/12/31 00:49:21;;;;;;;3.38;1.55;;;12.10;99.90;;;;;;5032565;28;20537;-75
2021/12/31 00:51:47;;;;;;;2.80;1.33;;;12.00;99.90;;;;;;5016000;28;20037;-75
2021/12/31 00:54:12;;;;;;;9.23;1.75;;;12.10;99.90;;;;;;5015303;28;20056;-75
2021/12/31 00:56:38;;;;;;;12.57;3.08;;;12.00;99.90;;;;;;5014635;28;20038;-75
2021/12/31 00:59:04;;;;;;;11.50;3.20;;;12.00;99.90;;;;;;5032475;28;20465;-75
2021/12/31 01:01:32;;;;;;;13.32;2.38;;;12.00;99.90;;;;;;5064742;28;20485;-75
2021/12/31 01:03:57;;;;;;;4.40;1.48;;;12.00;99.90;;;;;;5032215;28;20401;-75
2021/12/31 01:06:23;;;;;;;14.40;3.05;;;12.00;99.90;;;;;;5013892;28;20124;-75
2021/12/31 01:08:49;;;;;;;23.65;2.15;;;12.00;99.90;;;;;;5032157;28;20120;-75
2021/12/31 01:11:15;;;;;;;9.30;1.88;;;12.00;99.90;;;;;;5031495;28;20045;-75
2021/12/31 01:13:55;;;;;;;2.08;1.20;;;11.90;99.90;;;;;;5014191;28;20052;-75
2021/12/31 01:16:23;;;;;;;4.07;2.38;;;12.00;99.90;;;;;;5030094;28;20045;-75
2021/12/31 01:21:20;;;;;;;12.57;2.78;;;11.90;99.90;;;;;;5032085;28;20091;-75
2021/12/31 01:23:47;;;;;;;4.18;1.33;;;12.00;99.90;;;;;;5029098;28;20034;-75
2021/12/31 01:26:13;;;;;;;9.15;2.42;;;12.00;99.90;;;;;;5030963;28;20079;-75
2021/12/31 01:28:39;;;;;;;38.10;2.90;;;12.00;99.90;;;;;;5048348;28;20506;-75
2021/12/31 01:31:05;;;;;;;4.53;1.90;;;12.00;99.90;;;;;;5024895;28;20079;-75
2021/12/31 01:33:31;;;;;;;9.55;2.13;;;12.10;99.90;;;;;;5045555;28;20132;-75
2021/12/31 01:35:57;;;;;;;18.42;3.42;;;12.00;99.90;;;;;;5031249;28;20044;-75
2021/12/31 01:38:22;;;;;;;4.85;1.75;;;12.10;99.90;;;;;;5029263;28;20116;-75
2021/12/31 01:40:51;;;;;;;7.85;1.90;;;12.10;99.90;;;;;;5024573;28;20034;-75
2021/12/31 01:43:18;;;;;;;12.98;2.65;;;12.10;99.90;;;;;;5031263;28;20068;-75
2021/12/31 01:45:53;;;;;;;10.32;2.17;;;12.10;99.90;;;;;;5031092;28;20045;-75
2021/12/31 01:48:48;;;;;;;6.95;2.70;;;12.20;99.90;;;;;;5030883;28;20042;-75
2021/12/31 01:51:07;;;;;;;5.15;1.65;;;12.20;99.90;;;;;;5027346;28;20054;-75
2021/12/31 01:53:33;;;;;;;18.60;2.33;;;12.20;99.90;;;;;;5031292;28;20034;-75
2021/12/31 01:56:01;;;;;;;2.03;0.65;;;12.20;99.90;;;;;;5030648;28;20080;-75
2021/12/31 01:58:27;;;;;;;12.95;2.58;;;12.20;99.90;;;;;;5031165;28;20383;-75
2021/12/31 02:00:54;;;;;;;5.75;0.80;;;12.20;99.90;;;;;;5021700;28;20054;-75
2021/12/31 02:03:22;;;;;;;4.15;1.38;;;12.20;99.90;;;;;;5031119;28;20060;-75
2021/12/31 02:05:48;;;;;;;9.18;2.72;;;12.20;99.90;;;;;;5031025;28;20118;-75
2021/12/31 02:08:15;;;;;;;2.42;1.50;;;12.20;99.90;;;;;;5021928;28;20383;-75
2021/12/31 02:10:41;;;;;;;9.85;2.05;;;12.20;99.90;;;;;;5031466;28;20433;-75
2021/12/31 02:13:09;;;;;;;4.85;1.52;;;12.20;99.90;;;;;;5030592;28;20045;-75
2021/12/31 02:15:35;;;;;;;13.60;2.13;;;12.20;99.90;;;;;;5030782;28;20418;-75
2021/12/31 02:18:03;;;;;;;10.15;2.80;;;12.20;99.90;;;;;;5029626;28;20037;-75
2021/12/31 02:20:42;;;;;;;10.52;2.30;;;12.20;99.90;;;;;;5030508;28;20049;-75
2021/12/31 02:23:24;;;;;;;6.20;1.63;;;12.20;99.90;;;;;;5030524;28;20528;-75
2021/12/31 02:25:50;;;;;;;9.70;2.58;;;12.30;99.90;;;;;;5028784;28;20107;-75
2021/12/31 02:28:18;;;;;;;1.40;1.08;;;12.30;99.90;;;;;;5030420;28;20128;-75
2021/12/31 02:30:44;;;;;;;3.85;1.27;;;12.30;99.90;;;;;;5042667;28;20052;-75
2021/12/31 02:33:10;;;;;;;3.17;1.73;;;12.30;99.90;;;;;;5029934;28;20045;-75
2021/12/31 02:35:37;;;;;;;4.20;2.35;;;12.30;99.90;;;;;;5030416;28;20082;-75
2021/12/31 02:38:05;;;;;;;15.70;2.78;;;12.30;99.90;;;;;;5030351;28;20045;-75
2021/12/31 02:40:32;;;;;;;4.88;1.88;;;12.30;99.90;;;;;;5028159;28;20049;-75
2021/12/31 02:42:58;;;;;;;2.47;1.50;;;12.40;99.90;;;;;;5030191;28;20037;-75
2021/12/31 02:45:30;;;;;;;6.30;2.30;;;12.40;99.90;;;;;;5029772;28;20049;-75
2021/12/31 02:48:00;;;;;;;3.92;2.15;;;12.40;99.90;;;;;;5026086;28;20034;-75
2021/12/31 02:50:33;;;;;;;4.30;1.13;;;12.50;99.90;;;;;;5029981;28;20076;-75
2021/12/31 02:53:05;;;;;;;9.23;3.40;;;12.50;99.90;;;;;;5063187;28;20033;-75
2021/12/31 02:55:34;;;;;;;6.43;1.83;;;12.50;99.90;;;;;;5029428;28;20044;-75
2021/12/31 02:58:01;;;;;;;11.50;2.28;;;12.50;99.90;;;;;;5027417;28;20490;-75
2021/12/31 03:00:28;;;;;;;4.07;1.38;;;12.50;99.90;;;;;;5029339;28;20500;-75
2021/12/31 03:02:55;;;;;;;4.93;1.08;;;12.60;99.90;;;;;;5013422;28;20056;-75
2021/12/31 03:05:22;;;;;;;5.57;2.35;;;12.50;99.90;;;;;;5026673;28;20092;-75
2021/12/31 03:07:49;;;;;;;11.00;2.17;;;12.60;99.90;;;;;;5027506;28;20043;-75
2021/12/31 03:10:17;;;;;;;11.57;2.63;;;12.60;99.90;;;;;;5013462;28;20037;-75
2021/12/31 03:12:43;;;;;;;11.55;3.45;;;12.60;99.90;;;;;;5029607;28;20048;-75
2021/12/31 03:15:10;;;;;;;8.55;2.95;;;12.60;99.90;;;;;;5023364;28;20029;-75
2021/12/31 03:17:37;;;;;;;11.32;2.97;;;12.70;99.90;;;;;;5061285;28;20041;-75
2021/12/31 03:20:13;;;;;;;3.60;0.80;;;12.60;99.90;;;;;;5029639;28;20029;-75
2021/12/31 03:22:40;;;;;;;2.75;1.20;;;12.70;99.90;;;;;;5036268;28;20137;-75
2021/12/31 03:25:08;;;;;;;17.80;3.83;;;12.70;99.90;;;;;;5023598;28;20107;-75
2021/12/31 03:27:34;;;;;;;8.93;2.15;;;12.70;99.90;;;;;;5029094;28;20041;-75
2021/12/31 03:30:00;;;;;;;3.85;1.30;;;12.70;99.90;;;;;;5044944;28;20402;-75
2021/12/31 03:32:26;;;;;;;6.03;2.03;;;12.70;99.90;;;;;;5029383;28;20044;-75
2021/12/31 03:34:51;;;;;;;4.88;2.08;;;12.70;99.90;;;;;;5029186;28;20725;-75
2021/12/31 03:37:17;;;;;;;5.40;2.05;;;12.70;99.90;;;;;;5028929;28;20045;-75
2021/12/31 03:39:43;;;;;;;9.35;3.08;;;12.70;99.90;;;;;;5036760;28;20782;-75
2021/12/31 03:42:14;;;;;;;5.97;1.90;;;12.70;99.90;;;;;;5029715;28;20037;-75
2021/12/31 03:44:40;;;;;;;4.03;1.58;;;12.60;99.90;;;;;;5062637;28;20045;-75
2021/12/31 03:47:06;;;;;;;8.60;1.80;;;12.60;99.90;;;;;;5027169;28;20053;-75
2021/12/31 03:49:32;;;;;;;5.38;1.55;;;12.70;99.90;;;;;;5026294;28;20504;-75
2021/12/31 03:51:57;;;;;;;3.35;1.38;;;12.60;99.90;;;;;;5013118;28;20048;-75
2021/12/31 03:54:23;;;;;;;8.23;2.10;;;12.60;99.90;;;;;;5028442;28;20448;-75
2021/12/31 03:56:49;;;;;;;7.95;2.22;;;12.60;99.90;;;;;;5017085;28;20457;-75
2021/12/31 03:59:15;;;;;;;8.25;2.33;;;12.70;99.90;;;;;;5028904;28;20037;-75
2021/12/31 04:01:40;;;;;;;6.68;2.40;;;12.70;99.90;;;;;;5028896;28;20048;-75
2021/12/31 04:04:08;;;;;;;8.52;2.10;;;12.70;99.90;;;;;;5028112;28;20072;-75
2021/12/31 04:06:34;;;;;;;7.85;2.70;;;12.70;99.90;;;;;;5043886;28;20045;-75
2021/12/31 04:09:00;;;;;;;2.40;0.85;;;12.70;99.90;;;;;;5028651;28;20072;-75
2021/12/31 04:11:26;;;;;;;8.32;2.25;;;12.70;99.90;;;;;;5028713;28;20131;-75
2021/12/31 04:13:52;;;;;;;6.68;1.38;;;12.80;99.90;;;;;;5027635;28;20095;-75
2021/12/31 04:16:18;;;;;;;3.10;1.60;;;12.70;99.90;;;;;;5023468;28;20049;-75
2021/12/31 04:18:44;;;;;;;4.95;2.03;;;12.70;99.90;;;;;;5027164;28;20042;-75
2021/12/31 04:21:09;;;;;;;7.20;2.10;;;12.80;99.90;;;;;;5028601;28;20050;-75
2021/12/31 04:23:47;;;;;;;3.58;1.95;;;12.80;99.90;;;;;;5024664;28;20040;-75
2021/12/31 04:26:14;;;;;;;4.82;1.67;;;12.80;99.90;;;;;;5037405;28;20049;-75
2021/12/31 04:28:40;;;;;;;9.30;2.05;;;12.90;99.90;;;;;;5028094;28;20559;-75
2021/12/31 04:31:05;;;;;;;7.10;1.80;;;12.90;99.90;;;;;;5026820;28;20057;-75
2021/12/31 04:33:31;;;;;;;9.43;2.58;;;12.80;99.90;;;;;;5011916;28;20107;-75
2021/12/31 04:35:57;;;;;;;9.55;2.15;;;12.90;99.90;;;;;;5011601;28;20451;-75
2021/12/31 04:38:23;;;;;;;5.88;2.17;;;12.90;99.90;;;;;;5024926;28;20056;-75
2021/12/31 04:40:49;;;;;;;5.38;1.98;;;12.90;99.90;;;;;;5024381;28;20406;-75
2021/12/31 04:43:15;;;;;;;4.65;1.35;;;12.90;99.90;;;;;;5028458;28;20139;-75
2021/12/31 04:45:40;;;;;;;5.25;1.95;;;12.80;99.90;;;;;;5035806;28;20045;-75
2021/12/31 04:48:06;;;;;;;10.02;2.00;;;12.90;99.90;;;;;;5011505;28;20049;-75
2021/12/31 04:50:32;;;;;;;9.55;2.20;;;12.90;99.90;;;;;;5028052;28;20072;-76
2021/12/31 04:52:58;;;;;;;5.32;1.98;;;12.90;99.90;;;;;;5028554;28;20038;-75
2021/12/31 04:55:24;;;;;;;3.92;1.23;;;12.90;99.90;;;;;;5027756;28;20038;-76
2021/12/31 04:57:50;;;;;;;2.78;1.30;;;13.00;99.90;;;;;;5027774;28;20049;-75
2021/12/31 05:00:16;;;;;;;5.82;1.98;;;13.00;99.90;;;;;;5028381;28;20091;-76
2021/12/31 05:02:43;;;;;;;7.22;1.30;;;13.00;99.90;;;;;;5028321;28;20063;-75
2021/12/31 05:05:09;;;;;;;8.02;2.92;;;13.00;99.90;;;;;;5023529;28;20037;-76
2021/12/31 05:07:35;;;;;;;2.50;1.45;;;12.90;99.90;;;;;;5044611;28;20073;-75
2021/12/31 05:10:01;;;;;;;3.03;1.85;;;12.90;99.90;;;;;;5033964;28;20084;-75
2021/12/31 05:12:30;;;;;;;9.43;2.15;;;12.90;99.90;;;;;;5025399;28;20047;-75
2021/12/31 05:14:56;;;;;;;2.60;1.58;;;12.80;99.90;;;;;;5028285;28;20071;-75
2021/12/31 05:17:22;;;;;;;4.78;1.92;;;12.70;99.90;;;;;;5028067;28;20382;-76
2021/12/31 05:19:48;;;;;;;1.50;0.80;;;12.80;99.90;;;;;;5027917;28;20493;-75
2021/12/31 05:22:14;;;;;;;4.57;1.98;;;12.80;99.90;;;;;;5011722;28;20041;-75
2021/12/31 05:24:41;;;;;;;3.05;1.30;;;12.70;99.90;;;;;;5031469;28;20037;-75
2021/12/31 05:27:07;;;;;;;6.00;1.83;;;12.60;99.90;;;;;;5031938;28;20528;-75
2021/12/31 05:29:34;;;;;;;2.00;1.45;;;12.60;99.90;;;;;;5028488;28;20041;-75
2021/12/31 05:32:00;;;;;;;3.92;1.90;;;12.60;99.90;;;;;;5032329;28;20037;-75
2021/12/31 05:34:27;;;;;;;0.47;0.47;;;12.60;99.90;;;;;;5032172;28;20098;-75
2021/12/31 05:36:52;;;;;;;4.65;1.67;;;12.60;99.90;;;;;;5031650;28;20051;-75
2021/12/31 05:39:18;;;;;;;2.20;0.93;;;12.50;99.90;;;;;;5025229;28;20401;-75
2021/12/31 05:41:44;;;;;;;1.27;1.13;;;12.50;99.90;;;;;;5047908;28;20048;-75
2021/12/31 05:44:10;;;;;;;2.67;1.25;;;12.50;99.90;;;;;;5031573;28;20079;-75
2021/12/31 05:46:36;;;;;;;3.00;1.73;;;12.50;99.90;;;;;;5030041;28;20045;-75
2021/12/31 05:49:03;;;;;;;4.53;1.73;;;12.60;99.90;;;;;;5023137;28;20512;-76
2021/12/31 05:51:30;;;;;;;4.53;1.52;;;12.60;99.90;;;;;;5064659;28;20626;-75
2021/12/31 05:53:57;;;;;;;5.28;2.38;;;12.70;99.90;;;;;;5031330;28;20111;-75
2021/12/31 05:56:23;;;;;;;4.15;2.17;;;12.70;99.90;;;;;;5028737;28;20040;-76
2021/12/31 05:58:49;;;;;;;3.80;2.00;;;12.80;99.90;;;;;;5031385;28;20417;-75
2021/12/31 06:01:14;;;;;;;4.53;1.52;;;12.80;99.90;;;;;;5014931;28;20052;-76
2021/12/31 06:03:40;;;;;;;2.28;1.17;;;12.80;99.90;;;;;;5028909;28;20038;-76
2021/12/31 06:06:05;;;;;;;6.72;2.15;;;12.90;99.90;;;;;;5062043;28;20415;-75
2021/12/31 06:08:31;;;;;;;1.00;0.93;;;12.80;99.90;;;;;;5031194;28;20076;-75
2021/12/31 06:10:57;;;;;;;3.60;1.73;;;12.80;99.90;;;;;;5030649;28;20037;-75
2021/12/31 06:13:23;;;;;;;3.28;0.80;;;12.90;99.90;;;;;;5028852;28;20041;-76
2021/12/31 06:15:55;;;;;;;1.75;1.27;;;12.90;99.90;;;;;;5063833;28;20759;-75
2021/12/31 06:18:21;;;;;;;4.50;0.90;;;12.90;99.90;;;;;;5044200;28;20041;-75
2021/12/31 06:20:47;;;;;;;3.70;1.58;;;12.90;99.90;;;;;;5046961;28;20033;-75
2021/12/31 06:23:13;;;;;;;4.80;1.25;;;13.00;99.90;;;;;;5044127;28;20056;-76
2021/12/31 06:25:39;;;;;;;2.22;1.73;;;13.00;99.90;;;;;;5030645;28;20541;-75
2021/12/31 06:28:04;;;;;;;5.65;2.35;;;13.00;99.90;;;;;;5030629;28;20041;-75
2021/12/31 06:30:30;;;;;;;1.67;0.85;;;13.00;99.90;;;;;;5027619;28;20073;-75
2021/12/31 06:32:56;;;;;;;1.38;1.17;;;13.00;99.90;;;;;;5013287;28;20033;-75
2021/12/31 06:35:23;;;;;;;18.77;1.65;;;12.90;99.90;;;;;;5030457;28;20045;-75
2021/12/31 06:37:51;;;;;;;2.92;1.35;;;12.90;99.90;;;;;;5029464;28;20037;-75
2021/12/31 06:40:17;;;;;;;2.35;1.25;;;12.90;99.90;;;;;;5028611;28;20560;-75
2021/12/31 06:42:44;;;;;;;1.83;1.23;;;12.80;99.90;;;;;;5030180;28;20061;-75
2021/12/31 06:45:10;;;;;;;2.40;1.20;;;12.80;99.90;;;;;;5029658;28;20042;-76
2021/12/31 06:47:36;;;;;;;3.42;1.77;;;12.80;99.90;;;;;;5011137;28;20034;-75
2021/12/31 06:50:03;;;;;;;3.70;1.92;;;12.70;99.90;;;;;;5046570;28;20102;-76
2021/12/31 06:52:29;;;;;;;1.58;1.42;;;12.70;99.90;;;;;;5030179;28;20052;-75
2021/12/31 06:54:54;;;;;;;4.40;1.92;;;12.80;99.90;;;;;;5028339;28;20037;-75
2021/12/31 06:57:20;;;;;;;3.03;1.38;;;12.70;99.90;;;;;;5021670;28;20041;-76
2021/12/31 06:59:46;;;;;;;1.17;1.05;;;12.70;99.90;;;;;;5046074;28;20044;-75
2021/12/31 07:02:12;;;;;;;1.50;1.30;;;12.80;99.90;;;;;;5029047;28;20072;-76
2021/12/31 07:04:37;;;;;;;2.38;1.38;;;12.70;99.90;;;;;;5023326;28;20064;-75
2021/12/31 07:07:03;;;;;;;2.30;1.05;;;12.70;99.90;;;;;;5029727;28;20081;-75
2021/12/31 07:09:30;;;;;;;1.20;1.20;;;12.70;99.90;;;;;;5029721;28;20464;-75
2021/12/31 07:11:56;;;;;;;1.25;1.15;;;12.70;99.90;;;;;;5028556;28;20049;-75
2021/12/31 07:14:21;;;;;;;0.40;0.40;;;12.70;99.90;;;;;;5061957;28;20124;-75
2021/12/31 07:16:47;;;;;;;2.50;1.98;;;12.70;99.90;;;;;;5029043;28;20053;-75
2021/12/31 07:19:13;;;;;;;0.88;0.50;;;12.70;99.90;;;;;;5029315;28;20045;-76
2021/12/31 07:21:39;;;;;;;6.38;1.52;;;12.70;99.90;;;;;;5019101;28;20042;-75
2021/12/31 07:24:05;;;;;;;0.88;0.85;;;12.70;99.90;;;;;;5061542;28;20057;-75
2021/12/31 07:26:31;;;;;;;0.68;0.68;;;12.60;99.90;;;;;;5029206;28;20052;-75
2021/12/31 07:28:56;;;;;;;2.28;1.40;;;12.60;99.90;;;;;;5026706;28;20049;-75
2021/12/31 07:31:22;;;;;;;0.68;0.68;;;12.50;99.90;;;;;;5041420;28;20045;-75
2021/12/31 07:33:48;;;;;;;0.32;0.32;;;12.50;99.90;;;;;;5028666;28;20041;-75
2021/12/31 07:36:13;;;;;;;3.83;1.05;;;12.40;99.90;;;;;;5012648;28;20620;-75
2021/12/31 07:38:40;;;;;;;1.00;0.93;;;12.30;99.90;;;;;;5044567;28;20056;-75
2021/12/31 07:41:06;;;;;;;0.98;0.90;;;12.30;99.90;;;;;;5037870;28;20063;-75
2021/12/31 07:43:32;;;;;;;4.18;0.63;;;12.30;99.90;;;;;;5019950;28;20123;-75
2021/12/31 07:45:59;;;;;;;2.10;1.65;;;12.30;99.90;;;;;;5028732;28;20041;-75
2021/12/31 07:48:25;;;;;;;1.17;0.90;;;12.40;99.90;;;;;;5016827;28;20049;-75
2021/12/31 07:50:52;;;;;;;0.98;0.98;;;12.50;99.90;;;;;;5029158;28;20037;-75
2021/12/31 07:53:18;;;;;;;2.03;0.88;;;12.50;99.90;;;;;;5012148;28;20413;-75
2021/12/31 07:55:44;;;;;;;2.90;1.08;;;12.50;99.90;;;;;;5025221;28;20187;-75
2021/12/31 07:58:10;;;;;;;4.53;1.80;;;12.60;99.90;;;;;;5028723;28;20472;-75
2021/12/31 08:00:36;;;;;;;1.85;1.20;;;12.50;99.90;;;;;;5029035;28;20037;-75
2021/12/31 08:03:03;;;;;;;5.72;1.73;;;12.60;99.90;;;;;;5026658;28;20108;-75
2021/12/31 08:05:31;;;;;;;2.65;1.13;;;12.60;99.90;;;;;;5038247;28;20037;-75
2021/12/31 08:07:57;;;;;;;3.35;1.65;;;12.60;99.90;;;;;;5029023;28;20041;-75
2021/12/31 08:10:22;;;;;;;2.28;1.60;;;12.60;99.90;;;;;;5029334;28;20034;-76
2021/12/31 08:12:48;;;;;;;3.38;1.92;;;12.60;99.90;;;;;;5027961;28;20060;-75
2021/12/31 08:15:15;;;;;;;2.30;0.98;;;12.60;99.90;;;;;;5028857;28;20045;-75
2021/12/31 08:17:40;;;;;;;2.25;1.55;;;12.60;99.90;;;;;;5028603;28;20045;-75
2021/12/31 08:20:07;;;;;;;3.10;1.83;;;12.60;99.90;;;;;;5027569;28;20128;-75
2021/12/31 08:22:32;;;;;;;2.88;1.27;;;12.60;99.90;;;;;;5027181;28;20120;-75
2021/12/31 08:24:58;;;;;;;2.35;1.95;;;12.60;99.90;;;;;;5028532;28;20128;-76
2021/12/31 08:27:24;;;;;;;0.52;0.52;;;12.70;99.90;;;;;;5044616;28;20041;-75
2021/12/31 08:29:50;;;;;;;1.85;0.90;;;12.60;99.90;;;;;;5025438;28;20048;-75
2021/12/31 08:32:15;;;;;;;0.80;0.80;;;12.70;99.90;;;;;;5028777;28;20064;-75
2021/12/31 08:34:41;;;;;;;5.88;2.13;;;12.60;99.90;;;;;;5028744;28;20071;-75
2021/12/31 08:37:07;;;;;;;1.08;0.73;;;12.60;99.90;;;;;;5011994;28;20167;-75
2021/12/31 08:39:33;;;;;;;3.00;1.60;;;12.70;99.90;;;;;;5021999;28;20115;-75
2021/12/31 08:42:01;;;;;;;1.70;1.45;;;12.60;99.90;;;;;;5060667;28;20498;-75
2021/12/31 08:44:27;;;;;;;0.45;0.45;;;12.70;99.90;;;;;;5028892;28;20047;-75
2021/12/31 08:46:53;;;;;;;5.05;1.35;;;12.70;99.90;;;;;;5014860;28;20042;-75
2021/12/31 08:49:20;;;;;;;4.90;2.17;;;12.80;99.90;;;;;;5056520;28;20099;-75
2021/12/31 08:51:46;;;;;;;0.93;0.88;;;12.80;99.90;;;;;;5028022;28;20042;-75
2021/12/31 08:54:12;;;;;;;3.75;0.93;;;12.80;99.90;;;;;;5025518;28;20157;-75
2021/12/31 08:56:37;;;;;;;2.92;1.60;;;12.80;99.90;;;;;;5024852;28;20120;-75
2021/12/31 08:59:03;;;;;;;0.73;0.73;;;12.70;99.90;;;;;;5030710;28;20041;-75
2021/12/31 09:01:29;;;;;;;5.30;1.30;;;12.80;99.90;;;;;;5032185;28;20045;-75
2021/12/31 09:03:55;;;;;;;5.65;1.80;;;12.70;99.90;;;;;;5032738;28;20386;-76
2021/12/31 09:06:21;;;;;;;1.38;1.13;;;12.70;99.90;;;;;;5025940;28;20092;-75
2021/12/31 09:08:47;;;;;;;3.90;1.85;;;12.70;99.90;;;;;;5032316;28;20398;-75
2021/12/31 09:11:14;;;;;;;1.92;1.20;;;12.70;99.90;;;;;;5031949;28;20041;-75
2021/12/31 09:13:42;;;;;;;1.10;0.98;;;12.70;99.90;;;;;;5031913;28;20080;-75
2021/12/31 09:16:08;;;;;;;2.53;1.92;;;12.70;99.90;;;;;;5022121;28;20072;-75
2021/12/31 09:18:34;;;;;;;4.70;1.90;;;12.70;99.90;;;;;;5027255;28;20042;-75
2021/12/31 09:21:00;;;;;;;1.85;1.20;;;12.70;99.90;;;;;;5031725;28;20124;-75
2021/12/31 09:23:26;;;;;;;2.00;1.10;;;12.70;99.90;;;;;;5026549;28;20041;-75
2021/12/31 09:25:52;;;;;;;7.65;1.65;;;12.60;99.90;;;;;;5031237;28;20103;-75
2021/12/31 09:28:17;;;;;;;1.75;1.33;;;12.60;99.90;;;;;;5031581;28;20379;-75
2021/12/31 09:30:43;;;;;;;1.25;1.00;;;12.60;99.90;;;;;;5027895;28;20048;-75
2021/12/31 09:33:10;;;;;;;1.85;1.35;;;12.60;99.90;;;;;;5032042;28;20072;-76
2021/12/31 09:35:36;;;;;;;1.42;1.13;;;12.70;99.90;;;;;;5030974;28;20073;-76
2021/12/31 09:38:08;;;;;;;1.38;1.27;;;12.70;99.90;;;;;;5046735;28;20076;-75
2021/12/31 09:40:37;;;;;;;2.25;1.27;;;12.60;99.90;;;;;;5037803;28;20046;-75
2021/12/31 09:43:08;;;;;;;1.45;1.23;;;12.60;99.90;;;;;;5031767;28;20049;-75
2021/12/31 09:45:36;;;;;;;3.50;1.90;;;12.60;99.90;;;;;;5030991;28;20045;-75
2021/12/31 09:48:10;;;;;;;1.65;1.52;;;12.50;99.90;;;;;;5025267;28;20375;-76
2021/12/31 09:50:42;;;;;;;6.03;2.22;;;12.50;99.90;;;;;;5031385;28;20422;-76
2021/12/31 09:53:09;;;;;;;3.75;2.20;;;12.50;99.90;;;;;;5018611;28;20095;-76
2021/12/31 09:55:37;;;;;;;3.65;1.65;;;12.50;99.90;;;;;;5024279;28;20848;-75
2021/12/31 09:58:03;;;;;;;1.90;1.27;;;12.40;99.90;;;;;;5033639;28;20045;-75
2021/12/31 10:00:29;;;;;;;6.40;2.50;;;12.30;99.90;;;;;;5030623;28;20072;-75
2021/12/31 10:03:10;;;;;;;5.97;2.40;;;12.30;99.90;;;;;;5031097;28;20073;-75
2021/12/31 10:05:44;;;;;;;4.20;2.60;;;12.20;99.90;;;;;;5021110;28;20103;-75
2021/12/31 10:08:31;;;;;;;4.82;2.35;;;12.10;99.90;;;;;;5031528;28;20401;-75
2021/12/31 10:11:08;;;;;;;5.72;1.83;;;12.10;99.90;;;;;;5030586;28;20045;-75
2021/12/31 10:13:37;;;;;;;5.90;2.28;;;12.10;99.90;;;;;;5010510;28;20104;-75
2021/12/31 10:16:03;;;;;;;3.58;1.92;;;12.10;99.90;;;;;;5028686;28;20120;-75
2021/12/31 10:18:34;;;;;;;7.00;1.75;;;12.10;99.90;;;;;;5031457;28;20486;-75
2021/12/31 10:21:01;;;;;;;3.22;1.52;;;12.10;99.90;;;;;;5042235;28;20080;-75
2021/12/31 10:23:27;;;;;;;5.88;2.67;;;12.00;99.90;;;;;;5026464;28;20725;-75
2021/12/31 10:26:14;;;;;;;8.52;2.78;;;12.00;99.90;;;;;;5029597;28;20043;-74
2021/12/31 10:29:13;;;;;;;6.75;2.38;;;12.00;99.90;;;;;;5013632;28;20498;-75
2021/12/31 10:31:47;;;;;;;7.78;2.60;;;12.00;99.90;;;;;;5048469;28;20581;-75
2021/12/31 10:34:34;;;;;;;3.15;1.98;;;12.00;99.90;;;;;;5045718;28;20687;-75
2021/12/31 10:37:03;;;;;;;5.00;2.03;;;12.00;99.90;;;;;;5027843;28;20375;-75
2021/12/31 10:39:37;;;;;;;6.35;2.88;;;12.00;99.90;;;;;;5045605;28;20076;-75
2021/12/31 10:42:11;;;;;;;5.32;2.20;;;11.90;99.90;;;;;;5039325;28;20044;-75
2021/12/31 10:44:52;;;;;;;5.80;3.10;;;11.90;99.90;;;;;;5044094;28;20126;-74
2021/12/31 10:47:21;;;;;;;7.55;3.13;;;11.90;99.90;;;;;;5061700;28;20041;-75
2021/12/31 10:50:02;;;;;;;7.18;2.38;;;11.90;99.90;;;;;;5028520;28;20045;-75
2021/12/31 10:52:39;;;;;;;3.42;1.83;;;11.80;99.90;;;;;;5028328;28;20037;-74
2021/12/31 10:55:19;;;;;;;1.77;1.63;;;11.80;99.90;;;;;;5028416;28;20068;-75
2021/12/31 10:57:46;;;;;;;0.85;0.82;;;11.80;99.90;;;;;;5012712;28;20521;-75
2021/12/31 11:00:13;;;;;;;3.50;2.10;;;11.80;99.90;;;;;;5029543;28;20120;-75
2021/12/31 11:02:40;;;;;;;12.82;6.13;;;11.80;99.90;;;;;;5023090;28;20041;-75
2021/12/31 11:05:07;;;;;;;7.07;4.68;;;11.80;99.90;;;;;;5012750;28;20041;-75
2021/12/31 11:07:34;;;;;;;3.20;2.42;;;11.80;99.90;;;;;;5039659;28;20124;-75
2021/12/31 11:10:04;;;;;;;10.55;4.43;;;11.90;99.90;;;;;;5042606;28;20046;-75
2021/12/31 11:12:32;;;;;;;8.18;2.67;;;11.80;99.90;;;;;;5041397;28;20049;-75
2021/12/31 11:14:57;;;;;;;8.48;5.22;;;11.80;99.90;;;;;;5012487;28;20052;-75
2021/12/31 11:17:24;;;;;;;8.80;5.03;;;11.80;99.90;;;;;;5028059;28;20037;-74
2021/12/31 11:19:51;;;;;;;2.30;1.88;;;11.90;99.90;;;;;;5043397;28;20117;-74
2021/12/31 11:22:25;;;;;;;1.27;1.20;;;11.80;99.90;;;;;;5058915;28;20037;-74
2021/12/31 11:24:51;;;;;;;2.72;1.60;;;11.80;99.90;;;;;;5039564;28;20048;-74
2021/12/31 11:27:26;;;;;;;7.60;3.47;;;11.80;99.90;;;;;;5029102;28;20490;-75
2021/12/31 11:29:52;;;;;;;7.80;5.40;;;11.80;99.90;;;;;;5027979;28;20120;-75
2021/12/31 11:32:18;;;;;;;6.57;2.95;;;11.80;99.90;;;;;;5025960;28;20045;-75
2021/12/31 11:35:04;;;;;;;3.83;2.92;;;11.80;99.90;;;;;;5027600;28;20045;-74
2021/12/31 11:37:45;;;;;;;6.80;3.05;;;11.90;99.90;;;;;;5041357;28;20092;-74
2021/12/31 11:40:37;;;;;;;36.15;20.65;;;11.80;99.90;;;;;;5042418;28;20033;-74
2021/12/31 11:43:20;;;;;;;6.88;5.30;;;11.80;99.90;;;;;;5041284;28;20041;-74
2021/12/31 11:46:19;;;;;;;6.68;2.63;;;11.80;99.90;;;;;;5007460;28;20049;-74
2021/12/31 11:48:48;;;;;;;11.32;6.35;;;11.70;99.90;;;;;;5060107;28;20045;-74
2021/12/31 11:51:16;;;;;;;7.57;3.80;;;11.70;99.90;;;;;;5026404;28;20461;-74
2021/12/31 11:54:00;;;;;;;11.55;4.82;;;11.70;99.90;;;;;;5027553;28;20501;-74
2021/12/31 11:56:45;;;;;;;4.72;2.75;;;11.70;99.90;;;;;;5026208;28;20037;-74
2021/12/31 11:59:11;;;;;;;0.55;0.55;;;11.60;99.90;;;;;;5024639;28;20685;-74
2021/12/31 12:01:37;;;;;;;8.23;2.67;;;11.60;99.90;;;;;;5042298;28;20049;-74
2021/12/31 12:04:29;;;;;;;3.10;1.65;;;11.60;99.90;;;;;;5025377;28;20068;-74
2021/12/31 12:07:30;;;;;;;2.47;1.83;;;11.60;99.90;;;;;;5020935;28;20370;-74
2021/12/31 12:09:56;;;;;;;1.98;1.45;;;11.60;99.90;;;;;;5022562;28;20041;-74
2021/12/31 12:12:27;;;;;;;1.23;1.13;;;11.60;99.90;;;;;;5037855;28;20083;-74
2021/12/31 12:14:57;;;;;;;2.63;2.42;;;11.50;99.90;;;;;;5056698;28;20041;-74
2021/12/31 12:17:29;;;;;;;0.38;0.38;;;11.50;99.90;;;;;;5022406;28;20628;-74
2021/12/31 12:20:00;;;;;;;1.73;1.33;;;11.50;99.90;;;;;;5037158;28;20041;-74
2021/12/31 12:22:32;;;;;;;0.38;0.32;;;11.40;99.90;;;;;;5029087;28;20050;-74
2021/12/31 12:25:04;;;;;;;10.95;1.40;;;11.40;99.90;;;;;;5040319;28;20061;-73
2021/12/31 12:27:30;;;;;;;4.47;2.33;;;11.40;99.90;;;;;;5006304;28;20052;-73
2021/12/31 12:29:57;;;;;;;3.17;1.55;;;11.40;99.90;;;;;;5054440;28;20038;-74
2021/12/31 12:32:33;;;;;;;2.00;1.40;;;11.50;99.90;;;;;;5019948;28;20497;-74
2021/12/31 12:34:59;;;;;;;3.83;1.83;;;11.50;99.90;;;;;;5039324;28;20073;-75
2021/12/31 12:37:31;;;;;;;1.05;0.75;;;11.50;99.90;;;;;;5025410;28;20052;-75
2021/12/31 12:39:58;;;;;;;11.15;5.25;;;11.60;99.90;;;;;;5016555;28;20038;-75
2021/12/31 12:42:24;;;;;;;16.23;5.50;;;11.60;99.90;;;;;;5019744;28;20041;-76
2021/12/31 12:45:08;;;;;;;3.22;2.90;;;11.60;99.90;;;;;;5022540;28;20052;-75
2021/12/31 12:47:37;;;;;;;1999.90;999.90;;;11.60;99.90;;;;;;5023128;28;20064;-75
2021/12/31 12:50:11;;;;;;;3.50;2.92;;;11.60;99.90;;;;;;5042033;28;20444;-75
2021/12/31 12:52:36;;;;;;;1.65;1.55;;;11.50;99.90;;;;;;5022495;28;20056;-75
2021/12/31 12:55:13;;;;;;;3.42;2.55;;;11.50;99.90;;;;;;5029605;28;20399;-75